Time;durP1;ratioP1;P1;durP2;ratioP2;P2;SDS_P1;SDS_P2;PMS_P1;PMS_P2;Temp;Humidity;BMP_temperature;BMP_pressure;BME280_temperature;BME280_humidity;BME280_pressure;Samples;Min_cycle;Max_cycle;Signal;HPM_P1;HPM_P2
2022/05/01 00:01:59;;;;;;;13.13;6.15;;;;;;;10.64;57.97;102310.22;5087653;28;20021;-79
2022/05/01 00:04:24;;;;;;;10.85;5.97;;;;;;;10.64;58.15;102292.25;5089274;28;20077;-79
2022/05/01 00:06:50;;;;;;;13.73;5.90;;;;;;;10.56;58.44;102298.66;5085741;28;20401;-80
2022/05/01 00:09:16;;;;;;;9.77;6.18;;;;;;;10.43;58.55;102298.72;5085305;28;20092;-79
2022/05/01 00:11:42;;;;;;;25.33;6.82;;;;;;;10.32;59.17;102306.56;5087128;28;20024;-80
2022/05/01 00:14:07;;;;;;;45.78;7.07;;;;;;;10.35;58.88;102300.78;5084350;28;20024;-79
2022/05/01 00:16:33;;;;;;;21.52;5.78;;;;;;;10.43;58.90;102296.03;5086286;28;20501;-79
2022/05/01 00:19:00;;;;;;;38.25;6.32;;;;;;;10.35;58.94;102296.25;5090669;28;20985;-80
2022/05/01 00:21:25;;;;;;;20.27;6.55;;;;;;;10.27;59.03;102302.66;5082228;28;20138;-80
2022/05/01 00:23:51;;;;;;;14.52;6.38;;;;;;;10.20;59.12;102306.31;5088488;28;20111;-81
2022/05/01 00:26:16;;;;;;;13.80;6.63;;;;;;;9.94;59.73;102299.97;5090651;28;20016;-80
2022/05/01 00:28:42;;;;;;;13.05;6.38;;;;;;;9.77;60.36;102300.56;5092607;28;20043;-80
2022/05/01 00:31:08;;;;;;;10.95;6.28;;;;;;;9.73;60.09;102305.50;5088988;28;20069;-80
2022/05/01 00:36:26;;;;;;;11.20;6.68;;;;;;;9.63;60.07;102307.75;5087626;28;20077;-80
2022/05/01 00:38:56;;;;;;;15.38;6.95;;;;;;;9.59;59.78;102301.16;5087847;28;20088;-79
2022/05/01 00:41:23;;;;;;;9.88;6.60;;;;;;;9.54;60.57;102300.94;5086777;28;20032;-79
2022/05/01 00:44:04;;;;;;;15.75;7.03;;;;;;;9.42;61.24;102305.25;5090388;28;20023;-80
2022/05/01 00:46:41;;;;;;;12.43;7.50;;;;;;;9.45;60.86;102302.97;5090528;28;20020;-79
2022/05/01 00:49:09;;;;;;;23.38;7.88;;;;;;;9.45;60.64;102297.63;5090891;28;20032;-79
2022/05/01 00:51:43;;;;;;;20.60;7.53;;;;;;;9.51;60.34;102304.00;5091454;28;20118;-79
2022/05/01 00:54:10;;;;;;;15.43;6.43;;;;;;;9.49;60.03;102300.72;5088617;28;20027;-80
2022/05/01 00:56:41;;;;;;;9.45;5.70;;;;;;;9.43;60.12;102304.22;5092826;28;20031;-79
2022/05/01 00:59:08;;;;;;;14.75;6.90;;;;;;;9.39;59.85;102309.16;5091520;28;20481;-79
2022/05/01 01:01:35;;;;;;;9.45;5.75;;;;;;;9.33;60.37;102302.72;5092536;28;20032;-79
2022/05/01 01:04:00;;;;;;;10.23;5.45;;;;;;;9.28;60.20;102304.38;5094402;28;20015;-79
2022/05/01 01:06:29;;;;;;;10.05;6.20;;;;;;;9.22;60.27;102303.34;5094277;28;20470;-79
2022/05/01 01:08:55;;;;;;;11.00;5.47;;;;;;;9.16;60.24;102306.81;5090799;28;20044;-79
2022/05/01 01:11:20;;;;;;;6.53;4.63;;;;;;;9.13;60.37;102296.50;5091398;28;20027;-80
2022/05/01 01:13:47;;;;;;;7.53;4.65;;;;;;;9.12;60.23;102304.72;5091983;28;20031;-79
2022/05/01 01:16:13;;;;;;;10.23;4.80;;;;;;;9.09;60.07;102306.78;5091399;28;20020;-79
2022/05/01 01:18:39;;;;;;;12.50;4.65;;;;;;;9.08;59.91;102306.97;5093234;28;20019;-80
2022/05/01 01:21:11;;;;;;;8.57;5.05;;;;;;;8.99;60.56;102305.53;5091914;28;20491;-80
2022/05/01 01:23:41;;;;;;;9.25;4.65;;;;;;;8.99;60.43;102305.53;5094377;28;20760;-79
2022/05/01 01:26:08;;;;;;;7.40;3.90;;;;;;;8.94;60.22;102308.78;5091298;28;20055;-80
2022/05/01 01:28:35;;;;;;;10.90;4.75;;;;;;;8.92;60.34;102315.34;5094532;28;20027;-79
2022/05/01 01:33:51;;;;;;;8.32;4.72;;;;;;;8.85;60.40;102307.31;5092416;28;20034;-79
2022/05/01 01:36:21;;;;;;;11.32;4.50;;;;;;;8.84;60.28;102308.31;5090725;28;20062;-79
2022/05/01 01:38:47;;;;;;;6.60;4.22;;;;;;;8.83;60.58;102306.69;5094856;28;20028;-79
2022/05/01 01:41:14;;;;;;;8.23;4.00;;;;;;;8.79;60.65;102300.06;5091853;28;20040;-79
2022/05/01 01:43:42;;;;;;;7.70;4.75;;;;;;;8.74;60.61;102306.00;5090333;28;20089;-79
2022/05/01 01:46:08;;;;;;;9.32;4.80;;;;;;;8.69;60.94;102300.44;5091428;28;20023;-79
2022/05/01 01:48:33;;;;;;;7.30;4.78;;;;;;;8.64;60.92;102297.53;5092593;28;20981;-79
2022/05/01 01:51:12;;;;;;;9.02;4.75;;;;;;;8.58;61.42;102300.97;5100643;28;20381;-79
2022/05/01 01:53:38;;;;;;;8.45;4.35;;;;;;;8.54;60.98;102294.38;5093881;28;20024;-79
2022/05/01 01:56:07;;;;;;;8.13;4.30;;;;;;;8.50;61.28;102300.31;5092879;28;20026;-79
2022/05/01 01:58:32;;;;;;;12.48;4.70;;;;;;;8.42;61.26;102299.44;5091172;28;20055;-79
2022/05/01 02:00:59;;;;;;;6.45;4.18;;;;;;;8.39;61.16;102296.34;5090649;28;20626;-79
2022/05/01 02:03:26;;;;;;;8.05;4.40;;;;;;;8.33;61.20;102297.94;5089664;28;20031;-79
2022/05/01 02:05:52;;;;;;;7.68;4.82;;;;;;;8.29;61.65;102299.34;5090699;28;20031;-79
2022/05/01 02:08:17;;;;;;;9.77;4.50;;;;;;;8.26;61.90;102306.91;5089891;28;20024;-79
2022/05/01 02:10:44;;;;;;;9.38;4.85;;;;;;;8.26;61.73;102298.88;5090702;28;20024;-79
2022/05/01 02:13:10;;;;;;;5.70;4.35;;;;;;;8.24;62.17;102290.25;5088857;28;20509;-81
2022/05/01 02:15:36;;;;;;;7.82;4.40;;;;;;;8.18;62.31;102291.84;5084912;28;20074;-79
2022/05/01 02:18:03;;;;;;;5.18;3.70;;;;;;;8.17;62.17;102290.22;5084488;28;20016;-79
2022/05/01 02:21:34;;;;;;;4.82;3.67;;;;;;;8.18;62.05;102299.88;5090476;28;20034;-79
2022/05/01 02:23:21;;;;;;;7.40;4.00;;;;;;;8.14;61.57;102294.09;5089721;28;20028;-79
2022/05/01 02:25:48;;;;;;;6.28;3.63;;;;;;;8.18;61.49;102283.84;5091703;28;20035;-79
2022/05/01 02:28:14;;;;;;;7.30;4.28;;;;;;;8.17;61.77;102284.88;5085767;28;20039;-79
2022/05/01 02:30:40;;;;;;;7.88;4.43;;;;;;;8.17;61.67;102283.03;5091872;28;20050;-79
2022/05/01 02:33:06;;;;;;;7.00;4.15;;;;;;;8.15;61.78;102273.56;5086817;28;20430;-79
2022/05/01 02:35:33;;;;;;;6.20;3.83;;;;;;;8.17;61.63;102285.69;5091569;28;20024;-79
2022/05/01 02:37:59;;;;;;;8.27;4.38;;;;;;;8.18;61.82;102282.00;5084368;28;20016;-79
2022/05/01 02:40:25;;;;;;;6.38;3.80;;;;;;;8.20;61.74;102284.47;5084939;28;20023;-79
2022/05/01 02:42:52;;;;;;;8.00;4.53;;;;;;;8.26;61.44;102282.88;5089471;28;20092;-80
2022/05/01 02:45:17;;;;;;;7.18;4.40;;;;;;;8.29;61.44;102286.00;5090625;28;20054;-79
2022/05/01 02:47:43;;;;;;;6.88;3.72;;;;;;;8.30;61.50;102286.81;5086660;28;20035;-79
2022/05/01 02:50:09;;;;;;;6.70;3.95;;;;;;;8.33;61.24;102286.41;5086756;28;20044;-79
2022/05/01 02:52:34;;;;;;;4.90;3.63;;;;;;;8.32;61.11;102292.78;5089090;28;20028;-79
2022/05/01 02:55:00;;;;;;;7.53;4.20;;;;;;;8.30;61.60;102294.81;5087546;28;20838;-79
2022/05/01 02:57:25;;;;;;;7.45;4.70;;;;;;;8.26;61.79;102288.19;5085150;28;20023;-79
2022/05/01 02:59:51;;;;;;;6.20;4.10;;;;;;;8.21;62.02;102295.97;5084551;28;20031;-79
2022/05/01 03:02:17;;;;;;;7.72;4.38;;;;;;;8.19;62.30;102298.84;5091275;28;20028;-79
2022/05/01 03:04:42;;;;;;;6.00;4.07;;;;;;;8.16;62.12;102305.41;5091255;28;20059;-80
2022/05/01 03:07:09;;;;;;;11.80;4.55;;;;;;;8.08;62.62;102294.88;5084823;28;20048;-79
2022/05/01 03:09:34;;;;;;;6.05;3.90;;;;;;;8.04;62.25;102303.44;5086759;28;20101;-78
2022/05/01 03:12:03;;;;;;;8.50;4.82;;;;;;;8.01;62.27;102302.00;5091242;28;20596;-79
2022/05/01 03:14:28;;;;;;;5.88;4.18;;;;;;;7.97;62.40;102295.41;5092959;28;20035;-79
2022/05/01 03:16:54;;;;;;;6.97;4.60;;;;;;;7.93;62.35;102301.31;5091647;28;20023;-79
2022/05/01 03:22:15;;;;;;;8.70;5.65;;;;;;;7.74;62.61;102297.47;5089664;28;20047;-79
2022/05/01 03:24:42;;;;;;;9.60;4.13;;;;;;;7.62;62.76;102296.31;5091331;28;20028;-78
2022/05/01 03:27:09;;;;;;;8.95;5.20;;;;;;;7.51;63.36;102301.13;5089443;28;20036;-79
2022/05/01 03:29:35;;;;;;;7.97;4.80;;;;;;;7.42;63.52;102301.44;5093152;28;20036;-79
2022/05/01 03:32:01;;;;;;;8.43;4.57;;;;;;;7.35;63.74;102298.69;5089016;28;20030;-79
2022/05/01 03:34:27;;;;;;;12.10;5.20;;;;;;;7.27;63.96;102293.50;5090625;28;20028;-79
2022/05/01 03:36:54;;;;;;;9.73;4.78;;;;;;;7.19;64.63;102301.63;5091826;28;20039;-79
2022/05/01 03:39:20;;;;;;;16.45;4.65;;;;;;;7.13;64.64;102300.50;5087941;28;20039;-80
2022/05/01 03:41:46;;;;;;;9.50;5.10;;;;;;;7.11;64.57;102307.03;5091159;28;20032;-79
2022/05/01 03:44:12;;;;;;;9.40;4.45;;;;;;;7.06;64.70;102306.78;5085323;28;20155;-80
2022/05/01 03:46:38;;;;;;;9.95;5.18;;;;;;;7.00;64.73;102303.00;5091172;28;20602;-79
2022/05/01 03:49:04;;;;;;;6.90;5.03;;;;;;;6.96;64.93;102305.22;5091223;28;20161;-79
2022/05/01 03:51:33;;;;;;;7.72;5.20;;;;;;;6.94;65.48;102309.09;5089709;28;20248;-80
2022/05/01 03:54:03;;;;;;;7.55;4.95;;;;;;;6.92;65.42;102303.13;5091502;28;20688;-79
2022/05/01 03:56:33;;;;;;;7.35;4.80;;;;;;;6.91;65.50;102299.63;5086899;28;20055;-79
2022/05/01 03:58:59;;;;;;;8.70;4.65;;;;;;;6.94;65.81;102301.09;5089629;28;20077;-79
2022/05/01 04:01:25;;;;;;;16.25;5.30;;;;;;;6.89;65.54;102304.31;5089430;28;20024;-79
2022/05/01 04:03:52;;;;;;;11.25;5.03;;;;;;;6.87;65.70;102298.34;5091927;28;20370;-79
2022/05/01 04:06:17;;;;;;;7.15;4.57;;;;;;;6.85;65.97;102303.03;5089189;28;20081;-80
2022/05/01 04:08:43;;;;;;;10.88;4.72;;;;;;;6.81;65.96;102299.06;5092494;28;20032;-79
2022/05/01 04:11:09;;;;;;;12.10;5.22;;;;;;;6.83;66.21;102297.09;5088100;28;20446;-79
2022/05/01 04:13:35;;;;;;;10.13;5.05;;;;;;;6.85;65.97;102303.03;5086790;28;20024;-79
2022/05/01 04:16:02;;;;;;;10.68;5.50;;;;;;;6.79;66.43;102298.44;5090403;28;20032;-79
2022/05/01 04:18:27;;;;;;;11.27;5.15;;;;;;;6.64;67.33;102302.94;5090998;28;20059;-79
2022/05/01 04:20:53;;;;;;;9.63;5.50;;;;;;;6.56;67.40;102295.06;5092319;28;20032;-79
2022/05/01 04:23:19;;;;;;;12.20;5.35;;;;;;;6.62;67.10;102299.63;5092538;28;20054;-79
2022/05/01 04:25:45;;;;;;;12.75;5.88;;;;;;;6.69;67.19;102300.56;5087394;28;20107;-79
2022/05/01 04:28:11;;;;;;;8.38;5.45;;;;;;;6.66;67.49;102309.75;5088448;28;20505;-79
2022/05/01 04:30:39;;;;;;;8.95;5.63;;;;;;;6.58;68.25;102309.00;5085897;28;20039;-79
2022/05/01 04:33:15;;;;;;;8.55;6.07;;;;;;;6.52;67.97;102309.75;5087952;28;20041;-79
2022/05/01 04:35:50;;;;;;;10.70;5.35;;;;;;;6.57;68.09;102315.34;5086221;28;20024;-80
2022/05/01 04:38:20;;;;;;;7.28;5.13;;;;;;;6.66;67.93;102316.94;5089329;28;20043;-79
2022/05/01 04:40:50;;;;;;;6.95;5.30;;;;;;;6.75;67.51;102314.97;5087375;28;20046;-79
2022/05/01 04:43:17;;;;;;;8.90;4.80;;;;;;;6.84;67.58;102319.22;5089493;28;20039;-79
2022/05/01 04:45:44;;;;;;;8.77;5.07;;;;;;;6.90;67.34;102318.47;5090050;28;20024;-79
2022/05/01 04:48:11;;;;;;;8.65;5.15;;;;;;;6.93;67.40;102312.75;5086191;28;20020;-79
2022/05/01 04:50:38;;;;;;;17.98;6.90;;;;;;;6.97;67.43;102320.19;5086264;28;20028;-79
2022/05/01 04:53:06;;;;;;;14.38;5.60;;;;;;;6.99;67.92;102317.34;5090050;28;20082;-80
2022/05/01 04:55:33;;;;;;;17.65;5.95;;;;;;;7.03;67.67;102320.50;5089001;28;20024;-79
2022/05/01 04:57:59;;;;;;;11.35;6.03;;;;;;;7.05;68.24;102319.28;5093512;28;20358;-79
2022/05/01 05:00:25;;;;;;;20.17;6.10;;;;;;;7.06;68.01;102320.09;5087243;28;20031;-79
2022/05/01 05:02:52;;;;;;;12.90;6.20;;;;;;;7.08;68.31;102320.75;5089984;28;20024;-80
2022/05/01 05:05:20;;;;;;;26.65;6.15;;;;;;;7.10;68.42;102324.88;5092584;28;20413;-79
2022/05/01 05:07:46;;;;;;;13.90;6.00;;;;;;;7.19;68.08;102334.44;5090805;28;20039;-79
2022/05/01 05:10:13;;;;;;;12.05;5.38;;;;;;;7.31;67.64;102332.09;5093300;28;20040;-79
2022/05/01 05:12:42;;;;;;;13.95;5.43;;;;;;;7.42;67.03;102331.59;5089022;28;20023;-79
2022/05/01 05:15:13;;;;;;;10.73;5.38;;;;;;;7.56;66.55;102336.06;5085571;28;20032;-79
2022/05/01 05:17:40;;;;;;;10.50;5.50;;;;;;;7.73;66.34;102335.84;5087293;28;20149;-79
2022/05/01 05:20:07;;;;;;;8.73;5.22;;;;;;;7.85;66.25;102331.63;5089734;28;20031;-79
2022/05/01 05:22:33;;;;;;;10.40;5.55;;;;;;;7.97;65.84;102335.44;5090749;28;20035;-79
2022/05/01 05:24:59;;;;;;;10.57;5.93;;;;;;;8.09;66.51;102336.56;5089890;28;20633;-79
2022/05/01 05:27:28;;;;;;;11.82;6.22;;;;;;;8.16;66.70;102332.09;5090323;28;20027;-79
2022/05/01 05:29:55;;;;;;;8.32;5.45;;;;;;;8.25;66.06;102337.28;5092449;28;20062;-80
2022/05/01 05:32:21;;;;;;;8.90;5.22;;;;;;;8.35;65.73;102338.66;5090270;28;20024;-80
2022/05/01 05:34:47;;;;;;;10.80;5.68;;;;;;;8.47;65.19;102328.25;5087424;28;20030;-79
2022/05/01 05:37:14;;;;;;;12.38;6.30;;;;;;;8.58;64.93;102333.03;5091661;28;20024;-80
2022/05/01 05:39:39;;;;;;;9.10;5.50;;;;;;;8.68;64.82;102330.03;5092194;28;20032;-79
2022/05/01 05:42:05;;;;;;;12.98;5.85;;;;;;;8.76;64.86;102341.38;5088602;28;20050;-79
2022/05/01 05:44:31;;;;;;;9.65;5.53;;;;;;;8.85;64.81;102338.56;5093409;28;20047;-79
2022/05/01 05:46:57;;;;;;;8.55;5.90;;;;;;;8.89;65.02;102337.13;5092508;28;20016;-80
2022/05/01 05:49:22;;;;;;;11.77;5.68;;;;;;;8.90;65.42;102336.09;5093702;28;20028;-80
2022/05/01 05:51:48;;;;;;;9.10;5.47;;;;;;;8.95;65.01;102336.31;5090441;28;20035;-79
2022/05/01 05:54:13;;;;;;;8.80;4.88;;;;;;;9.03;65.02;102336.19;5093704;28;20024;-79
2022/05/01 05:56:39;;;;;;;7.63;4.88;;;;;;;9.13;65.25;102333.94;5090972;28;20108;-79
2022/05/01 05:59:04;;;;;;;7.25;4.47;;;;;;;9.27;64.37;102341.00;5090986;28;20106;-79
2022/05/01 06:01:30;;;;;;;7.07;4.70;;;;;;;9.41;64.33;102341.88;5091557;28;20031;-79
2022/05/01 06:03:56;;;;;;;6.68;3.75;;;;;;;9.54;63.88;102341.91;5093191;28;20150;-79
2022/05/01 06:06:21;;;;;;;7.88;4.80;;;;;;;9.75;63.71;102338.25;5092511;28;20028;-79
2022/05/01 06:08:47;;;;;;;8.40;4.95;;;;;;;9.97;63.22;102344.22;5090488;28;20047;-79
2022/05/01 06:11:12;;;;;;;15.93;5.43;;;;;;;10.15;62.86;102343.63;5093751;28;20032;-79
2022/05/01 06:13:38;;;;;;;9.43;4.70;;;;;;;10.29;63.06;102339.94;5093006;28;20028;-79
2022/05/01 06:16:04;;;;;;;6.38;3.97;;;;;;;10.39;62.71;102343.00;5092051;28;20028;-80
2022/05/01 06:18:30;;;;;;;10.15;4.72;;;;;;;10.44;62.98;102345.91;5090406;28;20030;-80
2022/05/01 06:20:56;;;;;;;7.30;3.65;;;;;;;10.51;62.62;102349.41;5092729;28;20047;-79
2022/05/01 06:23:22;;;;;;;6.03;3.70;;;;;;;10.68;62.11;102340.91;5088182;28;20024;-80
2022/05/01 06:25:47;;;;;;;6.97;3.90;;;;;;;10.88;61.76;102339.81;5090618;28;20032;-79
2022/05/01 06:28:14;;;;;;;10.07;3.92;;;;;;;11.06;61.28;102346.38;5094904;28;20020;-79
2022/05/01 06:30:45;;;;;;;6.60;3.70;;;;;;;11.17;61.23;102353.75;5094457;28;20039;-79
2022/05/01 06:33:13;;;;;;;6.78;3.40;;;;;;;11.20;60.88;102348.78;5092705;28;20024;-79
2022/05/01 06:35:39;;;;;;;5.88;3.30;;;;;;;11.23;60.40;102344.03;5092602;28;20036;-79
2022/05/01 06:38:04;;;;;;;6.60;3.00;;;;;;;11.32;59.59;102345.44;5093575;28;20024;-79
2022/05/01 06:40:30;;;;;;;4.53;2.95;;;;;;;11.41;59.32;102350.34;5091738;28;20032;-79
2022/05/01 06:42:56;;;;;;;5.93;2.90;;;;;;;11.55;58.85;102356.47;5089114;28;20469;-79
2022/05/01 06:45:22;;;;;;;4.75;2.83;;;;;;;11.73;58.15;102356.56;5089524;28;20028;-79
2022/05/01 06:47:47;;;;;;;5.97;2.92;;;;;;;11.89;57.45;102359.78;5091508;28;20548;-79
2022/05/01 06:50:14;;;;;;;4.03;2.90;;;;;;;12.12;57.00;102368.09;5093190;28;20044;-77
2022/05/01 06:52:39;;;;;;;6.78;2.63;;;;;;;12.31;56.66;102359.03;5087093;28;20059;-77
2022/05/01 06:55:05;;;;;;;6.10;2.75;;;;;;;12.50;56.36;102359.06;5087441;28;20544;-77
2022/05/01 06:57:31;;;;;;;5.25;2.50;;;;;;;12.70;55.50;102365.91;5084913;28;20103;-76
2022/05/01 06:59:56;;;;;;;4.47;2.50;;;;;;;12.86;55.08;102359.09;5087193;28;20112;-76
2022/05/01 07:02:22;;;;;;;5.53;2.72;;;;;;;13.04;54.52;102360.16;5086309;28;20032;-77
2022/05/01 07:04:48;;;;;;;2.88;2.28;;;;;;;13.19;53.94;102358.75;5088099;28;20491;-76
2022/05/01 07:07:13;;;;;;;7.38;2.40;;;;;;;13.36;53.76;102358.97;5081920;28;20068;-76
2022/05/01 07:09:39;;;;;;;7.03;2.75;;;;;;;13.51;53.13;102359.38;5087638;28;20036;-76
2022/05/01 07:12:06;;;;;;;4.72;2.63;;;;;;;13.65;53.00;102361.91;5086413;28;20020;-76
2022/05/01 07:14:32;;;;;;;7.65;2.78;;;;;;;13.73;52.18;102358.88;5085752;28;20501;-76
2022/05/01 07:16:57;;;;;;;3.58;2.25;;;;;;;13.89;52.33;102353.63;5087302;28;20028;-76
2022/05/01 07:19:23;;;;;;;6.43;2.70;;;;;;;14.04;51.80;102363.97;5087630;28;20080;-77
2022/05/01 07:21:48;;;;;;;5.00;2.65;;;;;;;14.15;51.63;102360.47;5085583;28;20027;-76
2022/05/01 07:24:14;;;;;;;6.10;2.63;;;;;;;14.27;51.25;102355.09;5085628;28;20027;-77
2022/05/01 07:26:39;;;;;;;4.05;2.45;;;;;;;14.36;51.02;102359.09;5093932;28;20123;-77
2022/05/01 07:29:05;;;;;;;2.92;1.90;;;;;;;14.45;50.61;102354.19;5083824;28;20036;-77
2022/05/01 07:31:31;;;;;;;7.13;2.63;;;;;;;14.40;49.51;102356.75;5083599;28;20020;-77
2022/05/01 07:33:57;;;;;;;5.00;3.05;;;;;;;14.40;49.21;102359.44;5080668;28;20027;-77
2022/05/01 07:36:23;;;;;;;4.50;3.20;;;;;;;14.32;48.93;102351.69;5080485;28;20229;-77
2022/05/01 07:38:49;;;;;;;8.40;3.33;;;;;;;14.34;49.17;102355.78;5084766;28;20023;-77
2022/05/01 07:41:18;;;;;;;7.30;3.35;;;;;;;14.47;49.32;102349.38;5083347;28;20026;-77
2022/05/01 07:43:44;;;;;;;3.90;2.97;;;;;;;14.67;49.17;102347.13;5081173;28;20104;-76
2022/05/01 07:46:10;;;;;;;7.22;3.00;;;;;;;14.90;48.82;102348.16;5080568;28;20107;-77
2022/05/01 07:48:36;;;;;;;5.13;2.83;;;;;;;15.19;48.36;102336.34;5084881;28;20127;-77
2022/05/01 07:51:02;;;;;;;5.40;2.80;;;;;;;15.44;47.83;102338.72;5085087;28;20048;-77
2022/05/01 07:53:28;;;;;;;5.03;2.90;;;;;;;15.72;46.94;102343.31;5080432;28;20028;-77
2022/05/01 07:55:53;;;;;;;7.10;2.90;;;;;;;15.88;46.43;102341.69;5078052;28;20020;-77
2022/05/01 07:58:20;;;;;;;7.25;3.40;;;;;;;16.20;46.02;102344.66;5085149;28;20509;-76
2022/05/01 08:00:47;;;;;;;4.35;2.70;;;;;;;16.20;44.84;102341.94;5087835;28;20024;-77
2022/05/01 08:05:58;;;;;;;2.88;2.38;;;;;;;16.78;44.52;102343.34;5081959;28;20054;-77
2022/05/01 08:08:25;;;;;;;6.50;2.42;;;;;;;16.90;43.94;102341.34;5085140;28;20025;-77
2022/05/01 08:10:50;;;;;;;6.13;2.85;;;;;;;16.71;43.15;102342.72;5086200;28;20028;-77
2022/05/01 08:13:16;;;;;;;4.78;2.50;;;;;;;16.52;43.40;102345.69;5083778;28;20024;-77
2022/05/01 08:15:41;;;;;;;3.22;2.47;;;;;;;16.55;43.31;102337.06;5082990;28;20103;-77
2022/05/01 08:21:07;;;;;;;5.00;2.80;;;;;;;16.72;43.05;102336.22;5085027;28;20128;-77
2022/05/01 08:23:35;;;;;;;5.20;2.13;;;;;;;16.80;43.24;102336.59;5083239;28;20466;-77
2022/05/01 08:26:03;;;;;;;5.32;2.90;;;;;;;16.73;42.90;102335.97;5086538;28;20012;-77
2022/05/01 08:28:39;;;;;;;8.20;2.70;;;;;;;16.72;42.59;102342.47;5084466;28;20047;-77
2022/05/01 08:31:06;;;;;;;5.55;2.60;;;;;;;16.70;42.89;102341.09;5087204;28;20112;-77
2022/05/01 08:33:33;;;;;;;4.60;2.70;;;;;;;16.76;43.11;102338.19;5086998;28;20074;-77
2022/05/01 08:35:59;;;;;;;7.03;2.88;;;;;;;16.67;42.95;102344.25;5086239;28;20026;-78
2022/05/01 08:38:25;;;;;;;5.43;2.67;;;;;;;16.63;42.67;102347.44;5094161;28;20087;-77
2022/05/01 08:40:52;;;;;;;5.10;2.45;;;;;;;16.49;42.83;102351.56;5085792;28;20114;-77
2022/05/01 08:43:19;;;;;;;6.68;2.72;;;;;;;16.51;42.51;102349.44;5088547;28;20085;-77
2022/05/01 08:45:54;;;;;;;8.05;2.53;;;;;;;16.31;42.37;102349.13;5091171;28;20386;-77
2022/05/01 08:48:19;;;;;;;;;;;;;;;16.18;42.03;102354.91;5087447;28;20069;-77
2022/05/01 08:50:46;;;;;;;3.67;2.40;;;;;;;16.33;42.37;102350.50;5088347;28;19927;-77
2022/05/01 08:53:12;;;;;;;5.78;2.83;;;;;;;16.20;42.08;102359.00;5089005;28;20023;-77
2022/05/01 08:55:39;;;;;;;7.03;2.50;;;;;;;16.19;42.25;102353.81;5088397;28;20116;-77
2022/05/01 08:58:05;;;;;;;3.25;1.70;;;;;;;16.27;42.12;102356.09;5087404;28;20106;-77
2022/05/01 09:00:31;;;;;;;3.17;2.13;;;;;;;16.38;41.46;102351.69;5086304;28;20027;-76
2022/05/01 09:02:56;;;;;;;4.55;1.83;;;;;;;16.38;41.24;102349.78;5087962;28;20023;-77
2022/05/01 09:05:22;;;;;;;6.32;2.50;;;;;;;16.43;41.07;102352.56;5087418;28;20067;-77
2022/05/01 09:07:48;;;;;;;4.18;1.80;;;;;;;16.25;40.35;102350.94;5084607;28;20035;-77
2022/05/01 09:10:14;;;;;;;3.15;2.00;;;;;;;16.37;40.06;102358.97;5089917;28;20652;-77
2022/05/01 09:12:50;;;;;;;3.53;1.58;;;;;;;16.32;39.58;102356.19;5089701;28;20031;-76
2022/05/01 09:15:33;;;;;;;1.95;1.60;;;;;;;16.31;38.68;102359.94;5087843;28;20032;-77
2022/05/01 09:18:05;;;;;;;3.22;1.45;;;;;;;16.34;39.18;102359.47;5087984;28;20065;-76
2022/05/01 09:20:32;;;;;;;3.50;1.60;;;;;;;16.25;38.98;102350.13;5087572;28;20032;-77
2022/05/01 09:22:58;;;;;;;2.05;1.30;;;;;;;16.23;38.82;102354.97;5089568;28;20016;-76
2022/05/01 09:25:27;;;;;;;4.85;1.60;;;;;;;16.13;38.64;102357.50;5086066;28;20107;-77
2022/05/01 09:27:57;;;;;;;3.92;1.70;;;;;;;16.34;39.16;102359.47;5087077;28;20027;-76
2022/05/01 09:30:31;;;;;;;2.97;1.35;;;;;;;16.57;38.88;102358.47;5082643;28;20040;-76
2022/05/01 09:32:57;;;;;;;3.60;1.10;;;;;;;16.74;38.75;102355.75;5085155;28;20070;-77
2022/05/01 09:35:22;;;;;;;3.60;1.50;;;;;;;16.91;38.45;102353.81;5087452;28;20024;-76
2022/05/01 09:37:49;;;;;;;3.85;1.35;;;;;;;16.91;38.04;102348.41;5086705;28;20043;-77
2022/05/01 09:40:33;;;;;;;3.88;1.58;;;;;;;16.99;38.30;102353.34;5087447;28;20047;-76
2022/05/01 09:42:58;;;;;;;5.70;1.20;;;;;;;16.92;37.60;102350.84;5081933;28;20081;-76
2022/05/01 09:45:31;;;;;;;2.00;1.10;;;;;;;17.18;35.69;102346.53;5086237;28;20040;-77
2022/05/01 09:47:58;;;;;;;2.58;1.42;;;;;;;17.38;37.18;102342.41;5080805;28;20023;-76
2022/05/01 09:50:43;;;;;;;2.55;1.00;;;;;;;17.71;37.19;102342.25;5084374;28;20024;-76
2022/05/01 09:53:09;;;;;;;4.30;1.63;;;;;;;18.10;36.57;102347.44;5086778;28;20024;-77
2022/05/01 09:55:36;;;;;;;2.25;1.00;;;;;;;18.37;36.29;102342.78;5088075;28;20862;-77
2022/05/01 09:58:10;;;;;;;2.35;1.05;;;;;;;18.59;35.34;102337.22;5087799;28;20012;-77
2022/05/01 10:00:36;;;;;;;2.50;1.20;;;;;;;18.40;35.23;102338.72;5087377;28;20028;-77
2022/05/01 10:03:31;;;;;;;1.33;1.08;;;;;;;18.35;34.00;102341.41;5088244;28;20044;-77
2022/05/01 10:05:59;;;;;;;2.57;1.10;;;;;;;18.55;35.45;102335.28;5087684;28;20702;-77
2022/05/01 10:08:25;;;;;;;2.58;1.05;;;;;;;18.60;34.41;102333.41;5088053;28;20032;-77
2022/05/01 10:10:58;;;;;;;2.90;1.10;;;;;;;18.64;34.58;102334.53;5087724;28;20031;-77
2022/05/01 10:13:27;;;;;;;2.17;1.30;;;;;;;18.49;34.57;102339.03;5086834;28;20117;-77
2022/05/01 10:15:54;;;;;;;1.70;1.13;;;;;;;18.39;34.59;102339.81;5085004;28;20016;-78
2022/05/01 10:18:22;;;;;;;1.90;0.93;;;;;;;18.40;34.48;102339.53;5083279;28;20021;-77
2022/05/01 10:20:48;;;;;;;2.88;1.25;;;;;;;18.33;34.05;102338.97;5086479;28;20023;-77
2022/05/01 10:23:16;;;;;;;4.60;0.90;;;;;;;18.21;33.93;102337.50;5088821;28;20073;-77
2022/05/01 10:25:55;;;;;;;3.90;0.95;;;;;;;18.00;32.40;102333.84;5083325;28;20046;-77
2022/05/01 10:28:26;;;;;;;1.20;0.70;;;;;;;17.82;33.51;102335.03;5086519;28;20016;-77
2022/05/01 10:34:00;;;;;;;4.72;1.00;;;;;;;17.65;32.94;102342.44;5073915;28;20052;-77
2022/05/01 10:36:38;;;;;;;3.80;1.20;;;;;;;17.18;33.63;102333.00;5088426;28;20020;-77
2022/05/01 10:39:09;;;;;;;5.15;1.00;;;;;;;17.09;33.50;102326.41;5085914;28;20114;-77
2022/05/01 10:41:45;;;;;;;1.85;0.90;;;;;;;17.04;33.78;102328.22;5086570;28;20061;-77
2022/05/01 10:44:30;;;;;;;2.55;0.90;;;;;;;17.03;33.65;102330.09;5083225;28;20016;-77
2022/05/01 10:47:16;;;;;;;1.60;0.88;;;;;;;16.93;33.86;102330.00;5082969;28;20136;-77
2022/05/01 10:49:47;;;;;;;2.72;0.90;;;;;;;16.92;33.25;102320.25;5085659;28;20028;-77
2022/05/01 10:52:16;;;;;;;1.60;0.80;;;;;;;16.80;33.95;102328.47;5081808;28;20031;-77
2022/05/01 10:54:53;;;;;;;2.05;0.82;;;;;;;16.76;33.47;102329.25;5084046;28;20127;-77
2022/05/01 10:57:19;;;;;;;72.82;42.90;;;;;;;16.86;34.00;102323.94;5086796;28;20027;-77
2022/05/01 11:00:22;;;;;;;65.70;39.45;;;;;;;16.98;33.68;102316.53;5082887;28;20028;-77
2022/05/01 11:03:00;;;;;;;18.33;11.05;;;;;;;17.00;33.92;102311.66;5079052;28;20442;-77
2022/05/01 11:05:50;;;;;;;5.22;2.30;;;;;;;17.05;33.62;102317.13;5084020;28;20550;-77
2022/05/01 11:08:18;;;;;;;1.48;1.15;;;;;;;17.22;34.23;102319.75;5083895;28;20986;-78
2022/05/01 11:10:44;;;;;;;4.90;1.40;;;;;;;17.32;33.93;102327.19;5082017;28;20156;-77
2022/05/01 11:13:16;;;;;;;4.60;1.33;;;;;;;17.41;34.04;102310.22;5082592;28;20829;-77
2022/05/01 11:15:49;;;;;;;5.43;1.30;;;;;;;17.64;34.03;102309.09;5082261;28;20035;-77
2022/05/01 11:18:28;;;;;;;3.40;1.00;;;;;;;17.82;33.34;102324.19;5079773;28;20053;-77
2022/05/01 11:20:53;;;;;;;4.38;1.20;;;;;;;18.05;33.75;102318.41;5079845;28;20799;-77
2022/05/01 11:23:35;;;;;;;3.22;1.10;;;;;;;18.04;33.28;102322.19;5082197;28;20119;-77
2022/05/01 11:26:26;;;;;;;4.45;1.17;;;;;;;18.20;33.52;102314.19;5080716;28;20024;-77
2022/05/01 11:29:16;;;;;;;;;;;;;;;;;;;;;
2022/05/01 11:31:44;;;;;;;2.90;1.00;;;;;;;18.90;33.22;102312.94;5084302;28;20042;-77
2022/05/01 11:34:16;;;;;;;2.22;1.25;;;;;;;19.22;32.71;102304.63;5080534;28;20040;-77
2022/05/01 11:37:06;;;;;;;4.82;1.25;;;;;;;19.15;31.87;102304.06;5085229;28;20073;-77
2022/05/01 11:39:48;;;;;;;1.50;1.20;;;;;;;18.83;30.61;102305.03;5084224;28;20023;-77
2022/05/01 11:42:42;;;;;;;4.25;1.17;;;;;;;18.61;32.61;102301.66;5082877;28;20031;-77
2022/05/01 11:45:52;;;;;;;3.60;1.10;;;;;;;18.80;33.18;102308.28;5078100;28;20063;-77
2022/05/01 11:48:20;;;;;;;2.97;1.17;;;;;;;18.97;33.20;102297.22;5062776;28;20043;-77
2022/05/01 11:50:53;;;;;;;2.95;1.55;;;;;;;19.07;32.82;102297.25;5084107;28;20028;-77
2022/05/01 11:53:24;;;;;;;3.00;1.40;;;;;;;19.07;30.07;102297.25;5082146;28;20019;-77